createdAt,value
2022-12-17T00:04:13.858Z,4.1
2022-12-17T00:09:38.649Z,4.1
2022-12-17T00:15:22.945Z,4.1
2022-12-17T00:20:46.890Z,4.1
2022-12-17T00:26:17.586Z,4.2
2022-12-17T00:31:57.131Z,4.1
2022-12-17T00:37:35.787Z,4.4
2022-12-17T00:43:16.648Z,4.1
2022-12-17T00:48:25.041Z,4.1
2022-12-17T00:53:50.005Z,4.3
2022-12-17T00:59:31.151Z,4.3
2022-12-17T01:10:21.178Z,4.1
2022-12-17T01:15:49.750Z,4.2
2022-12-17T01:21:14.844Z,4.3
2022-12-17T01:26:57.442Z,4.4
2022-12-17T01:32:41.862Z,4.4
2022-12-17T01:38:19.916Z,4.4
2022-12-17T01:43:58.083Z,4.5
2022-12-17T01:49:36.468Z,5
2022-12-17T01:55:14.125Z,4.8
2022-12-17T02:05:44.284Z,4.6
2022-12-17T02:11:05.704Z,4.8
2022-12-17T02:16:28.629Z,4.8
2022-12-17T02:21:51.394Z,4.8
2022-12-17T02:27:14.204Z,4.9
2022-12-17T02:32:51.712Z,4.9
2022-12-17T02:38:31.571Z,5.3
2022-12-17T02:44:10.958Z,5.1
2022-12-17T02:49:48.272Z,4.9
2022-12-17T02:55:10.340Z,4.7
2022-12-17T03:00:35.392Z,4.8
2022-12-17T03:06:49.591Z,4.5
2022-12-17T03:12:27.891Z,4.9
2022-12-17T03:18:06.903Z,5
2022-12-17T03:23:44.850Z,5.1
2022-12-17T03:29:23.497Z,4.9
2022-12-17T03:34:51.812Z,4.7
2022-12-17T03:40:28.399Z,4.5
2022-12-17T03:46:06.148Z,4.8
2022-12-17T03:51:27.753Z,4.5
2022-12-17T03:57:04.783Z,4.8
2022-12-17T04:02:44.067Z,5
2022-12-17T04:08:28.705Z,5.2
2022-12-17T04:14:11.774Z,5.3
2022-12-17T04:19:50.226Z,4.9
2022-12-17T04:25:11.956Z,5.3
2022-12-17T04:30:48.502Z,5.4
2022-12-17T04:36:33.112Z,5.4
2022-12-17T04:42:10.941Z,5.4
2022-12-17T04:47:48.709Z,5.4
2022-12-17T04:53:11.423Z,5.7
2022-12-17T04:58:49.117Z,5.6
2022-12-17T05:04:28.504Z,6.1
2022-12-17T05:09:51.133Z,5.8
2022-12-17T05:15:28.690Z,6
2022-12-17T05:21:13.411Z,6.8
2022-12-17T05:26:55.063Z,6.3
2022-12-17T05:32:40.801Z,7.9
2022-12-17T05:38:18.865Z,7.3
2022-12-17T05:43:56.909Z,8.5
2022-12-17T05:49:34.995Z,7.8
2022-12-17T06:00:45.330Z,6.4
2022-12-17T06:06:09.049Z,6.3
2022-12-17T06:11:46.385Z,6.1
2022-12-17T06:17:10.054Z,5.9
2022-12-17T06:22:33.831Z,6
2022-12-17T06:28:11.733Z,6.6
2022-12-17T06:33:50.413Z,6.7
2022-12-17T06:39:31.031Z,8.1
2022-12-17T06:45:13.515Z,7.8
2022-12-17T06:50:52.469Z,8.3
2022-12-17T06:56:30.679Z,8.8
2022-12-17T07:02:13.344Z,8.6
2022-12-17T07:07:52.372Z,8.5
2022-12-17T07:13:38.876Z,9.3
2022-12-17T07:19:15.690Z,9.3
2022-12-17T07:24:38.349Z,8.9
2022-12-17T07:30:01.830Z,9.6
2022-12-17T07:35:44.676Z,10.1
2022-12-17T07:41:23.201Z,11.3
2022-12-17T07:47:02.285Z,10.3
2022-12-17T07:52:39.151Z,10.1
2022-12-17T07:58:06.241Z,10.1
2022-12-17T08:03:46.493Z,10.2
2022-12-17T08:09:28.412Z,9.8
2022-12-17T08:14:57.094Z,9.9
2022-12-17T08:20:12.314Z,10.1
2022-12-17T08:25:51.221Z,9.9
2022-12-17T08:32:11.642Z,9.9
2022-12-17T08:37:50.269Z,10.3
2022-12-17T08:43:32.952Z,11
2022-12-17T08:49:13.286Z,11.4
2022-12-17T08:54:50.966Z,11.4
2022-12-17T09:00:28.888Z,10.9
2022-12-17T09:06:10.031Z,10.6
2022-12-17T09:11:47.697Z,10.5
2022-12-17T09:17:25.590Z,10.4
2022-12-17T09:23:04.463Z,10.2
2022-12-17T09:28:48.420Z,10.3
2022-12-17T09:34:30.315Z,10.4
2022-12-17T09:40:14.710Z,10.1
2022-12-17T09:45:42.325Z,10.2
2022-12-17T09:51:09.027Z,9.4
2022-12-17T09:56:32.198Z,9.6
2022-12-17T10:02:10.833Z,10.4
2022-12-17T10:07:51.311Z,10.7
2022-12-17T10:13:36.129Z,10.7
2022-12-17T10:19:14.860Z,10.6
2022-12-17T10:24:56.573Z,10.4
2022-12-17T10:30:39.071Z,10.4
2022-12-17T10:36:01.125Z,10.6
2022-12-17T10:41:38.507Z,10.8
2022-12-17T10:47:23.356Z,10.6
2022-12-17T10:53:05.768Z,10.9
2022-12-17T10:58:48.763Z,11.7
2022-12-17T11:04:19.469Z,12.1
2022-12-17T11:10:08.921Z,12.3
2022-12-17T11:15:56.213Z,12.5
2022-12-17T11:21:36.653Z,12
2022-12-17T11:27:14.920Z,11.4
2022-12-17T11:32:52.005Z,11.4
2022-12-17T11:38:38.732Z,11.7
2022-12-17T11:44:18.393Z,11.6
2022-12-17T11:49:28.828Z,11.8
2022-12-17T11:55:13.681Z,11.7
2022-12-17T12:00:59.481Z,11.2
2022-12-17T12:06:45.353Z,10.9
2022-12-17T12:12:23.369Z,11.2
2022-12-17T12:18:01.771Z,11.3
2022-12-17T12:23:41.878Z,11.8
2022-12-17T12:29:25.744Z,12.1
2022-12-17T12:35:09.665Z,12.4
2022-12-17T12:40:47.612Z,12.4
2022-12-17T12:46:25.759Z,12
2022-12-17T12:52:07.403Z,12.1
2022-12-17T12:57:50.399Z,11.8
2022-12-17T13:03:33.755Z,11.6
2022-12-17T13:08:57.745Z,11.4
2022-12-17T13:14:43.668Z,11.4
2022-12-17T13:20:23.202Z,11.3
2022-12-17T13:26:06.678Z,11.3
2022-12-17T13:31:51.137Z,11.3
2022-12-17T13:37:15.737Z,11.4
2022-12-17T13:42:55.352Z,11.3
2022-12-17T13:48:32.557Z,11.3
2022-12-17T13:54:48.214Z,11.4
2022-12-17T14:00:28.415Z,11.6
2022-12-17T14:06:39.151Z,11.7
2022-12-17T14:12:16.728Z,11.7
2022-12-17T14:17:57.906Z,11.6
2022-12-17T14:23:24.062Z,11.4
2022-12-17T14:29:06.704Z,11.3
2022-12-17T14:35:33.224Z,10.9
2022-12-17T14:41:32.375Z,10.8
2022-12-17T14:47:14.138Z,10.6
2022-12-17T14:52:52.639Z,10.4
2022-12-17T14:58:30.428Z,10
2022-12-17T15:04:15.266Z,10.1
2022-12-17T15:09:37.769Z,9.6
2022-12-17T15:15:03.451Z,9.8
2022-12-17T15:20:46.907Z,9.3
2022-12-17T15:26:02.117Z,8.7
2022-12-17T15:31:26.789Z,8.6
2022-12-17T15:37:06.378Z,8.8
2022-12-17T15:42:46.971Z,8.6
2022-12-17T15:48:27.748Z,8.5
2022-12-17T15:54:13.030Z,8.2
2022-12-17T15:59:53.306Z,7.9
2022-12-17T16:05:08.412Z,8
2022-12-17T16:10:52.191Z,7.9
2022-12-17T16:16:03.555Z,8
2022-12-17T16:21:46.451Z,8
2022-12-17T16:27:09.952Z,7.9
2022-12-17T16:32:52.633Z,7.6
2022-12-17T16:38:33.027Z,7.6
2022-12-17T16:44:15.870Z,7.6
2022-12-17T16:49:55.213Z,7.7
2022-12-17T16:55:41.101Z,7.7
2022-12-17T17:01:08.845Z,8
2022-12-17T17:06:52.504Z,7.9
2022-12-17T17:12:30.453Z,8.1
2022-12-17T17:18:28.764Z,8.2
2022-12-17T17:24:08.149Z,7.7
2022-12-17T17:30:06.140Z,7.1
2022-12-17T17:36:24.665Z,7.3
2022-12-17T17:42:03.707Z,7.1
2022-12-17T17:47:42.456Z,6.9
2022-12-17T17:54:01.560Z,6.4
2022-12-17T17:59:45.851Z,6.4
2022-12-17T18:05:25.754Z,6.2
2022-12-17T18:11:39.337Z,6.1
2022-12-17T18:17:31.876Z,6.9
2022-12-17T18:23:12.378Z,7
2022-12-17T18:28:51.003Z,7.3
2022-12-17T18:34:13.942Z,7.8
2022-12-17T18:39:51.379Z,7.9
2022-12-17T18:45:35.291Z,8.1
2022-12-17T18:51:19.206Z,8.1
2022-12-17T18:57:33.659Z,8.1
2022-12-17T19:03:13.634Z,8.1
2022-12-17T19:08:56.589Z,8.1
2022-12-17T19:14:36.002Z,8.1
2022-12-17T19:20:14.974Z,8.1
2022-12-17T19:25:52.085Z,8.1
2022-12-17T19:31:18.676Z,8
2022-12-17T19:37:01.529Z,8
2022-12-17T19:42:39.602Z,7.9
2022-12-17T19:48:17.830Z,7.8
2022-12-17T19:54:03.405Z,7.8
2022-12-17T19:59:44.786Z,7.8
2022-12-17T20:05:25.123Z,7.7
2022-12-17T20:11:03.667Z,7.8
2022-12-17T20:16:46.350Z,7.8
2022-12-17T20:22:24.070Z,7.8
2022-12-17T20:33:13.196Z,7.7
2022-12-17T20:38:36.213Z,7.6
2022-12-17T20:44:16.670Z,7.6
2022-12-17T20:49:43.272Z,7.6
2022-12-17T20:55:24.182Z,7.6
2022-12-17T21:01:05.880Z,7.6
2022-12-17T21:06:46.029Z,7.5
2022-12-17T21:23:17.606Z,7.3
2022-12-17T21:28:44.639Z,7.1
2022-12-17T21:33:24.812Z,7
2022-12-17T21:44:04.367Z,6.9
2022-12-17T21:49:50.006Z,6.8
2022-12-17T21:55:29.245Z,6.8
2022-12-17T22:00:52.725Z,6.7
2022-12-17T22:07:06.109Z,6.6
2022-12-17T22:14:07.750Z,6.5
2022-12-17T22:19:43.893Z,6.4
2022-12-17T22:25:10.337Z,6.4
2022-12-17T22:30:34.836Z,6.4
2022-12-17T22:46:38.385Z,6.1
2022-12-17T22:52:51.850Z,6
2022-12-17T22:59:38.250Z,5.9
2022-12-17T23:05:23.860Z,5.9
2022-12-17T23:11:02.315Z,5.8
2022-12-17T23:16:40.206Z,5.8
2022-12-17T23:27:42.908Z,5.5
2022-12-17T23:33:21.009Z,5.4
2022-12-17T23:38:47.154Z,5.3
2022-12-17T23:44:26.454Z,5.2
2022-12-17T23:50:09.024Z,5.1
2022-12-17T23:55:47.618Z,5.1
